New Goshen, Indiana
Current Conditions -  °F | °C
As of 9:53 PM on Friday 21 Nov 2014 (Local Time) from KHUF Reporting Station
Overcast Overcast  
Wind Chill: 27°   Ceiling: 3600
Heat Index: 33°   Visibility: 10mi
Dew Point: 15°   Wind: 7mph
Humidity: 48%   Direction: 150°SSE
Pressure: 30.34"   Gusts: NA
Location:  39.58°N, 87.46°W
Report Text: KHUF 220253Z 15006KT 10SM BKN036 OVC045 01/M09 A3034 RMK AO2 SLP281 T00061094 58013
Loading
Personal Weather Stations






























Interactive Weather Map New forecast layout! Learn more

10-Day Weather Forecast

Advertisements
Track Severe Weather on mobile